Airfield :
LOGIN :

Register | Disclaimer

   EN    FR    IT 

 










Legend :    VFR   Marginal VFR   IFR   Intensive IFR   Very Intensive IFR
Visi :
Ceiling :
>= 8 km
>= 3000ft
5 to 8 km
1000 to 3000 ft
1500m to 5 km
500 to 1000 ft
800 to 1500m
200 to 500 ft
< 800m
< 200 ft
Symbols :   Thunderstorms  Fog  Heavy snow  Heavy precipitations  Wind > 20 kt
SIGMETs :     Misc.  Thunderstorms  Icing  Turbulence  Mountain Waves  Volcanic Ashes







- Airport Elevation : 87 ft
- IATA code : FSC
- Download approach charts


LFKF - Figari

CURRENT METAR :
  • 300030Z AUTO 04003KT 9999 NSC 03/02 Q1024

EXPIRED METARs :
  • 300000Z AUTO 04004KT 9999 NSC 03/02 Q1024
  • 292330Z AUTO 04001KT 9999 NSC 02/01 Q1024
  • 292300Z AUTO 02003KT 9999 NSC 03/02 Q1024
  • 292230Z AUTO 03002KT 9999 NSC 03/02 Q1024
  • 292200Z AUTO 02003KT 9999 NSC 03/02 Q1024

TAF TAF LFKF
Valid from the 29 at 15:00 until the 30 at 15:00 UTC


291400Z 2915/3015 20008KT CAVOK
BECMG 2918/2920 05006KT
BECMG 3008/3010 24008KT
No reported NOTAMs for that airfield.



MET'MAP, your aeronautical weather chart ! - Copyright ORBIFLY December 2007 - Disclaimer

ORBIFLY MET'MAP TEAM :

Programming & Development : Alexandra Zaïnal
Concept & Development : Baudouin d'Aumeries
Co-Development & Prog : Marc-Olivier Méhu
Technical & hardware support : Manuel Goepfert

Contact : metmap@orbifly.com




SOURCES & CREDITS :

   NOAA